createdAt,value
2022-07-25T00:02:11.305Z,49.20
2022-07-25T00:04:47.964Z,49.20
2022-07-25T00:07:22.064Z,49.20
2022-07-25T00:09:56.131Z,49.10
2022-07-25T00:12:31.589Z,49.10
2022-07-25T00:15:06.661Z,49.10
2022-07-25T00:17:41.940Z,49.10
2022-07-25T00:20:16.011Z,49.10
2022-07-25T00:22:50.021Z,49.20
2022-07-25T00:25:24.061Z,49.10
2022-07-25T00:27:59.412Z,49.10
2022-07-25T00:30:33.412Z,49.10
2022-07-25T00:33:07.377Z,49.10
2022-07-25T00:35:41.335Z,49.10
2022-07-25T00:38:15.366Z,49.10
2022-07-25T00:40:55.424Z,49.10
2022-07-25T00:43:31.210Z,49.10
2022-07-25T00:46:05.463Z,49.10
2022-07-25T00:48:40.129Z,49.20
2022-07-25T00:51:14.146Z,49.10
2022-07-25T00:53:48.189Z,49.10
2022-07-25T00:56:22.246Z,49.10
2022-07-25T00:58:57.647Z,49.10
2022-07-25T01:01:32.093Z,49.20
2022-07-25T01:04:06.935Z,49.10
2022-07-25T01:06:41.478Z,49.10
2022-07-25T01:09:15.744Z,49.10
2022-07-25T01:11:49.964Z,49.10
2022-07-25T01:14:25.472Z,49.10
2022-07-25T01:16:59.488Z,49.10
2022-07-25T01:19:33.536Z,49.10
2022-07-25T01:22:08.982Z,49.00
2022-07-25T01:24:42.931Z,49.00
2022-07-25T01:27:17.169Z,49.00
2022-07-25T01:29:51.552Z,49.10
2022-07-25T01:32:25.539Z,49.10
2022-07-25T01:34:59.570Z,49.10
2022-07-25T01:37:35.245Z,49.10
2022-07-25T01:40:10.280Z,49.00
2022-07-25T01:42:44.561Z,49.10
2022-07-25T01:45:18.568Z,49.10
2022-07-25T01:47:52.564Z,49.10
2022-07-25T01:50:26.803Z,49.10
2022-07-25T01:53:02.171Z,49.10
2022-07-25T01:55:36.239Z,49.10
2022-07-25T01:58:11.640Z,49.10
2022-07-25T02:00:45.624Z,49.60
2022-07-25T02:03:31.778Z,49.10
2022-07-25T02:06:08.731Z,49.10
2022-07-25T02:08:44.275Z,49.00
2022-07-25T02:11:18.461Z,49.00
2022-07-25T02:13:52.617Z,49.00
2022-07-25T02:16:29.191Z,49.00
2022-07-25T02:19:03.645Z,49.10
2022-07-25T02:21:37.909Z,49.60
2022-07-25T02:24:13.300Z,49.00
2022-07-25T02:26:47.295Z,49.00
2022-07-25T02:29:21.888Z,49.00
2022-07-25T02:31:56.237Z,49.00
2022-07-25T02:34:30.227Z,49.20
2022-07-25T02:37:04.281Z,48.90
2022-07-25T02:39:39.744Z,49.00
2022-07-25T02:42:13.749Z,48.90
2022-07-25T02:44:47.739Z,48.90
2022-07-25T02:47:21.756Z,49.00
2022-07-25T02:49:55.749Z,49.00
2022-07-25T02:52:29.783Z,49.00
2022-07-25T02:55:09.568Z,49.00
2022-07-25T02:57:43.938Z,49.10
2022-07-25T03:00:18.976Z,49.00
2022-07-25T03:02:53.056Z,49.00
2022-07-25T03:05:27.099Z,48.90
2022-07-25T03:08:01.073Z,49.00
2022-07-25T03:10:37.199Z,48.90
2022-07-25T03:13:11.149Z,48.90
2022-07-25T03:15:45.123Z,48.90
2022-07-25T03:18:19.220Z,48.80
2022-07-25T03:20:53.222Z,48.80
2022-07-25T03:23:28.512Z,48.90
2022-07-25T03:26:04.042Z,48.80
2022-07-25T03:28:38.100Z,48.80
2022-07-25T03:31:12.117Z,48.80
2022-07-25T03:33:46.250Z,48.80
2022-07-25T03:36:20.747Z,48.90
2022-07-25T03:38:56.830Z,48.90
2022-07-25T03:41:32.306Z,48.90
2022-07-25T03:44:06.729Z,48.90
2022-07-25T03:46:41.127Z,48.90
2022-07-25T03:49:15.189Z,48.90
2022-07-25T03:51:49.178Z,48.90
2022-07-25T03:54:23.168Z,48.80
2022-07-25T03:56:59.963Z,48.90
2022-07-25T03:59:33.966Z,48.80
2022-07-25T04:02:08.048Z,48.90
2022-07-25T04:04:42.334Z,48.90
2022-07-25T04:07:16.374Z,48.80
2022-07-25T04:09:50.386Z,48.80
2022-07-25T04:12:26.034Z,48.80
2022-07-25T04:14:59.974Z,48.80
2022-07-25T04:17:34.092Z,48.80
2022-07-25T04:20:09.270Z,48.80
2022-07-25T04:22:46.737Z,48.80
2022-07-25T04:25:21.181Z,48.90
2022-07-25T04:27:56.619Z,48.90
2022-07-25T04:30:30.573Z,48.80
2022-07-25T04:33:04.573Z,48.80
2022-07-25T04:35:38.563Z,48.80
2022-07-25T04:38:12.590Z,48.80
2022-07-25T04:40:46.598Z,48.80
2022-07-25T04:43:23.491Z,48.90
2022-07-25T04:45:57.608Z,48.90
2022-07-25T04:48:31.742Z,48.80
2022-07-25T04:51:05.811Z,48.80
2022-07-25T04:53:40.112Z,48.80
2022-07-25T04:56:14.257Z,48.80
2022-07-25T04:58:49.712Z,48.70
2022-07-25T05:01:23.774Z,48.80
2022-07-25T05:03:57.847Z,48.80
2022-07-25T05:06:31.868Z,48.80
2022-07-25T05:09:06.013Z,48.80
2022-07-25T05:11:43.745Z,48.80
2022-07-25T05:14:23.144Z,48.80
2022-07-25T05:16:57.194Z,48.80
2022-07-25T05:19:31.277Z,48.80
2022-07-25T05:22:05.889Z,48.80
2022-07-25T05:24:40.102Z,48.80
2022-07-25T05:27:14.202Z,48.80
2022-07-25T05:29:49.823Z,48.70
2022-07-25T05:32:23.859Z,48.70
2022-07-25T05:34:57.876Z,48.80
2022-07-25T05:37:31.841Z,48.80
2022-07-25T05:40:06.878Z,48.80
2022-07-25T05:42:41.031Z,48.70
2022-07-25T05:45:16.450Z,48.70
2022-07-25T05:47:50.519Z,48.80
2022-07-25T05:50:24.624Z,48.80
2022-07-25T05:52:58.669Z,48.80
2022-07-25T05:55:32.630Z,48.70
2022-07-25T05:58:06.524Z,48.70
2022-07-25T06:00:42.096Z,48.80
2022-07-25T06:03:16.211Z,48.70
2022-07-25T06:05:50.444Z,48.70
2022-07-25T06:08:24.866Z,48.70
2022-07-25T06:10:59.567Z,48.70
2022-07-25T06:13:34.887Z,48.70
2022-07-25T06:16:10.858Z,48.70
2022-07-25T06:18:44.821Z,48.70
2022-07-25T06:21:18.768Z,48.70
2022-07-25T06:23:52.734Z,48.70
2022-07-25T06:26:26.876Z,48.70
2022-07-25T06:29:00.822Z,48.60
2022-07-25T06:31:36.238Z,48.60
2022-07-25T06:34:10.656Z,48.60
2022-07-25T06:36:44.835Z,48.70
2022-07-25T06:39:18.797Z,48.70
2022-07-25T06:41:52.801Z,48.70
2022-07-25T06:44:26.832Z,48.60
2022-07-25T06:47:02.573Z,48.70
2022-07-25T06:49:36.597Z,48.60
2022-07-25T06:52:10.902Z,48.70
2022-07-25T06:54:44.865Z,48.70
2022-07-25T06:57:18.801Z,48.60
2022-07-25T06:59:52.914Z,48.60
2022-07-25T07:02:28.439Z,48.60
2022-07-25T07:05:02.458Z,48.60
2022-07-25T07:07:36.549Z,48.60
2022-07-25T07:10:11.962Z,48.60
2022-07-25T07:12:46.452Z,48.60
2022-07-25T07:15:20.967Z,48.60
2022-07-25T07:17:56.628Z,48.50
2022-07-25T07:20:30.926Z,48.50
2022-07-25T07:23:04.889Z,48.50
2022-07-25T07:25:39.837Z,48.50
2022-07-25T07:28:13.782Z,48.50
2022-07-25T07:31:18.538Z,48.50
2022-07-25T07:33:43.702Z,48.40
2022-07-25T07:36:18.672Z,48.50
2022-07-25T07:38:53.163Z,48.50
2022-07-25T07:41:27.241Z,48.40
2022-07-25T07:44:01.960Z,48.40
2022-07-25T07:46:36.207Z,48.40
2022-07-25T07:49:12.043Z,48.40
2022-07-25T07:51:46.454Z,48.40
2022-07-25T07:54:37.679Z,48.40
2022-07-25T07:57:11.664Z,48.40
2022-07-25T07:59:46.314Z,48.40
2022-07-25T08:02:20.540Z,48.40
2022-07-25T08:04:55.948Z,48.40
2022-07-25T08:07:29.873Z,48.40
2022-07-25T08:10:03.830Z,48.40
2022-07-25T08:12:42.719Z,48.40
2022-07-25T08:15:17.791Z,48.40
2022-07-25T08:17:52.469Z,48.40
2022-07-25T08:20:37.985Z,48.50
2022-07-25T08:23:12.732Z,48.40
2022-07-25T08:25:48.102Z,48.50
2022-07-25T08:28:22.142Z,48.40
2022-07-25T08:30:56.646Z,48.40
2022-07-25T08:33:30.860Z,48.40
2022-07-25T08:36:06.733Z,48.50
2022-07-25T08:38:40.677Z,48.50
2022-07-25T08:41:14.760Z,48.50
2022-07-25T08:43:50.872Z,48.50
2022-07-25T08:46:25.841Z,48.50
2022-07-25T08:49:00.109Z,48.50
2022-07-25T08:51:36.257Z,48.50
2022-07-25T08:54:11.896Z,49.10
2022-07-25T08:56:48.124Z,48.40
2022-07-25T08:59:22.152Z,48.40
2022-07-25T09:01:56.276Z,48.40
2022-07-25T09:04:30.989Z,48.40
2022-07-25T09:07:08.476Z,48.40
2022-07-25T09:09:44.807Z,48.40
2022-07-25T09:12:22.811Z,48.40
2022-07-25T09:14:59.955Z,48.40
2022-07-25T09:17:34.712Z,48.40
2022-07-25T09:20:14.119Z,48.40
2022-07-25T09:22:52.556Z,48.40
2022-07-25T09:25:30.007Z,48.40
2022-07-25T09:28:15.525Z,48.40
2022-07-25T09:30:56.401Z,48.40
2022-07-25T09:33:31.514Z,48.40
2022-07-25T09:36:12.511Z,48.40
2022-07-25T09:38:55.772Z,48.30
2022-07-25T09:41:35.853Z,48.40
2022-07-25T09:44:18.293Z,48.30
2022-07-25T09:46:52.451Z,48.40
2022-07-25T09:49:27.004Z,48.30
2022-07-25T09:52:00.977Z,48.30
2022-07-25T09:54:36.670Z,48.40
2022-07-25T09:57:10.646Z,48.40
2022-07-25T09:59:45.959Z,48.40
2022-07-25T10:02:31.913Z,48.40
2022-07-25T10:05:15.090Z,48.30
2022-07-25T10:07:51.852Z,48.30
2022-07-25T10:10:29.611Z,48.30
2022-07-25T10:13:10.323Z,48.40
2022-07-25T10:15:48.222Z,48.30
2022-07-25T10:18:24.853Z,48.30
2022-07-25T10:21:24.899Z,48.30
2022-07-25T10:24:04.011Z,48.30
2022-07-25T10:26:41.147Z,48.30
2022-07-25T10:29:15.155Z,48.30
2022-07-25T10:31:51.551Z,48.30
2022-07-25T10:34:32.053Z,48.30
2022-07-25T10:37:14.094Z,48.30
2022-07-25T10:39:48.814Z,48.30
2022-07-25T10:42:25.555Z,48.30
2022-07-25T10:45:06.175Z,48.30
2022-07-25T10:47:43.158Z,48.30
2022-07-25T10:50:40.252Z,48.30
2022-07-25T10:53:17.273Z,48.30
2022-07-25T10:56:05.841Z,48.30
2022-07-25T10:58:46.751Z,48.30
2022-07-25T11:01:27.015Z,48.30
2022-07-25T11:04:06.000Z,48.30
2022-07-25T11:06:43.203Z,48.30
2022-07-25T11:09:21.582Z,48.30
2022-07-25T11:12:00.407Z,48.30
2022-07-25T11:14:37.794Z,48.30
2022-07-25T11:17:14.734Z,48.30
2022-07-25T11:19:57.101Z,48.30
2022-07-25T11:22:32.795Z,48.30
2022-07-25T11:25:14.121Z,48.30
2022-07-25T11:27:56.589Z,48.30
2022-07-25T11:30:32.677Z,48.30
2022-07-25T11:33:06.729Z,48.40
2022-07-25T11:35:40.826Z,48.30
2022-07-25T11:38:15.628Z,48.30
2022-07-25T11:40:51.193Z,48.30
2022-07-25T11:43:26.214Z,48.30
2022-07-25T11:46:03.954Z,48.30
2022-07-25T11:48:40.223Z,48.30
2022-07-25T11:51:18.845Z,48.30
2022-07-25T11:53:53.487Z,48.30
2022-07-25T11:56:43.733Z,48.20
2022-07-25T11:59:18.175Z,48.30
2022-07-25T12:01:53.770Z,48.30
2022-07-25T12:04:28.830Z,48.30
2022-07-25T12:07:07.012Z,48.30
2022-07-25T12:09:41.060Z,48.40
2022-07-25T12:12:15.066Z,48.30
2022-07-25T12:14:49.032Z,48.30
2022-07-25T12:17:24.439Z,48.30
2022-07-25T12:19:58.378Z,48.30
2022-07-25T12:22:32.362Z,48.30
2022-07-25T12:25:07.241Z,48.30
2022-07-25T12:27:41.812Z,48.30
2022-07-25T12:30:16.400Z,48.30
2022-07-25T12:32:51.905Z,48.30
2022-07-25T12:35:26.704Z,48.30
2022-07-25T12:38:01.125Z,48.20
2022-07-25T12:40:35.245Z,48.30
2022-07-25T12:43:09.702Z,48.30
2022-07-25T12:45:43.931Z,48.30
2022-07-25T12:48:19.297Z,48.30
2022-07-25T12:50:53.267Z,48.30
2022-07-25T12:53:27.257Z,48.30
2022-07-25T12:56:01.257Z,48.30
2022-07-25T12:58:35.269Z,48.40
2022-07-25T13:01:09.346Z,48.30
2022-07-25T13:03:44.793Z,48.30
2022-07-25T13:06:20.966Z,48.40
2022-07-25T13:08:54.987Z,48.30
2022-07-25T13:11:29.041Z,48.30
2022-07-25T13:14:03.062Z,48.30
2022-07-25T13:16:38.133Z,48.40
2022-07-25T13:19:13.685Z,48.30
2022-07-25T13:21:47.665Z,48.30
2022-07-25T13:24:21.680Z,48.40
2022-07-25T13:26:55.630Z,48.30
2022-07-25T13:29:29.890Z,48.30
2022-07-25T13:32:03.954Z,48.30
2022-07-25T13:34:39.664Z,48.40
2022-07-25T13:37:13.889Z,48.30
2022-07-25T13:39:47.947Z,49.00
2022-07-25T13:42:22.005Z,48.40
2022-07-25T13:44:56.257Z,48.30
2022-07-25T13:47:30.698Z,48.30
2022-07-25T13:50:07.051Z,48.30
2022-07-25T13:52:41.038Z,48.40
2022-07-25T13:55:15.086Z,48.40
2022-07-25T13:57:49.225Z,48.40
2022-07-25T14:00:23.659Z,48.40
2022-07-25T14:02:57.783Z,48.40
2022-07-25T14:05:33.776Z,48.40
2022-07-25T14:08:08.615Z,48.40
2022-07-25T14:10:42.904Z,48.40
2022-07-25T14:13:17.056Z,48.40
2022-07-25T14:15:51.253Z,48.40
2022-07-25T14:18:25.598Z,48.40
2022-07-25T14:21:01.956Z,48.40
2022-07-25T14:23:35.990Z,48.40
2022-07-25T14:26:09.950Z,48.40
2022-07-25T14:28:44.063Z,48.40
2022-07-25T14:31:18.626Z,48.40
2022-07-25T14:33:53.234Z,48.40
2022-07-25T14:36:28.892Z,48.50
2022-07-25T14:39:05.062Z,48.60
2022-07-25T14:41:39.549Z,48.50
2022-07-25T14:44:13.612Z,48.50
2022-07-25T14:46:49.344Z,48.50
2022-07-25T14:49:24.082Z,48.50
2022-07-25T14:51:59.869Z,48.50
2022-07-25T14:54:34.069Z,48.50
2022-07-25T14:57:09.692Z,48.50
2022-07-25T14:59:44.083Z,48.50
2022-07-25T15:02:18.363Z,48.50
2022-07-25T15:04:52.536Z,48.50
2022-07-25T15:07:28.320Z,48.50
2022-07-25T15:10:02.419Z,48.50
2022-07-25T15:12:36.644Z,48.50
2022-07-25T15:15:11.579Z,48.50
2022-07-25T15:17:45.869Z,48.50
2022-07-25T15:20:20.009Z,48.50
2022-07-25T15:22:55.555Z,48.50
2022-07-25T15:28:24.058Z,48.60
2022-07-25T15:30:58.166Z,48.60
2022-07-25T15:33:32.684Z,48.60
2022-07-25T15:36:07.244Z,48.60
2022-07-25T15:38:43.009Z,48.60
2022-07-25T15:41:17.196Z,48.60
2022-07-25T15:43:51.259Z,48.60
2022-07-25T15:46:25.471Z,48.60
2022-07-25T15:48:59.960Z,48.60
2022-07-25T15:51:34.140Z,48.60
2022-07-25T15:54:09.778Z,48.60
2022-07-25T15:56:44.014Z,48.60
2022-07-25T15:59:18.312Z,49.20
2022-07-25T16:01:52.492Z,48.60
2022-07-25T16:04:26.631Z,48.60
2022-07-25T16:07:00.832Z,48.60
2022-07-25T16:09:36.373Z,48.60
2022-07-25T16:12:11.570Z,48.60
2022-07-25T16:14:45.679Z,48.60
2022-07-25T16:17:20.033Z,48.60
2022-07-25T16:19:54.348Z,48.60
2022-07-25T16:22:28.405Z,48.60
2022-07-25T16:25:03.928Z,48.60
2022-07-25T16:27:37.920Z,48.60
2022-07-25T16:30:12.959Z,48.60
2022-07-25T16:32:47.325Z,48.60
2022-07-25T16:35:21.822Z,48.60
2022-07-25T16:37:55.934Z,48.60
2022-07-25T16:40:31.492Z,48.70
2022-07-25T16:43:05.660Z,48.60
2022-07-25T16:45:39.732Z,48.70
2022-07-25T16:48:13.857Z,48.70
2022-07-25T16:50:48.432Z,48.60
2022-07-25T16:53:22.738Z,48.70
2022-07-25T16:55:58.274Z,48.70
2022-07-25T16:58:32.512Z,48.70
2022-07-25T17:01:07.033Z,48.70
2022-07-25T17:03:41.272Z,48.70
2022-07-25T17:06:16.527Z,48.60
2022-07-25T17:08:50.742Z,48.60
2022-07-25T17:11:27.025Z,48.60
2022-07-25T17:14:01.157Z,48.60
2022-07-25T17:16:35.425Z,48.60
2022-07-25T17:19:10.631Z,48.60
2022-07-25T17:21:44.998Z,48.60
2022-07-25T17:24:19.119Z,48.60
2022-07-25T17:26:54.510Z,48.60
2022-07-25T17:29:28.709Z,48.70
2022-07-25T17:32:02.855Z,48.70
2022-07-25T17:34:36.907Z,48.70
2022-07-25T17:37:11.250Z,48.70
2022-07-25T17:39:45.452Z,48.70
2022-07-25T17:42:22.452Z,48.60
2022-07-25T17:44:56.505Z,48.60
2022-07-25T17:47:31.222Z,48.70
2022-07-25T17:50:06.881Z,48.60
2022-07-25T17:52:41.566Z,48.70
2022-07-25T17:55:15.785Z,48.70
2022-07-25T17:57:54.809Z,48.60
2022-07-25T18:00:28.889Z,48.60
2022-07-25T18:03:03.065Z,48.60
2022-07-25T18:05:37.197Z,48.60
2022-07-25T18:08:11.752Z,48.60
2022-07-25T18:10:45.909Z,48.70
2022-07-25T18:13:22.195Z,48.70
2022-07-25T18:15:56.717Z,48.70
2022-07-25T18:18:31.828Z,48.70
2022-07-25T18:21:06.108Z,48.70
2022-07-25T18:23:40.157Z,48.70
2022-07-25T18:26:14.227Z,48.70
2022-07-25T18:28:49.766Z,48.60
2022-07-25T18:31:23.932Z,48.70
2022-07-25T18:33:58.058Z,48.70
2022-07-25T18:36:32.603Z,48.70
2022-07-25T18:39:08.035Z,48.70
2022-07-25T18:41:42.113Z,48.70
2022-07-25T18:44:17.933Z,48.70
2022-07-25T18:46:51.974Z,48.60
2022-07-25T18:49:27.372Z,48.60
2022-07-25T18:52:01.443Z,48.60
2022-07-25T18:54:35.845Z,48.70
2022-07-25T18:57:11.745Z,48.60
2022-07-25T18:59:47.277Z,48.70
2022-07-25T19:02:21.640Z,48.70
2022-07-25T19:04:55.687Z,48.70
2022-07-25T19:07:31.453Z,48.70
2022-07-25T19:10:06.530Z,48.70
2022-07-25T19:12:41.116Z,48.70
2022-07-25T19:15:16.714Z,48.70
2022-07-25T19:17:50.997Z,48.70
2022-07-25T19:20:25.680Z,48.70
2022-07-25T19:23:00.152Z,48.70
2022-07-25T19:25:34.453Z,48.70
2022-07-25T19:28:08.566Z,48.70
2022-07-25T19:30:44.328Z,48.70
2022-07-25T19:33:18.475Z,48.70
2022-07-25T19:35:52.760Z,48.70
2022-07-25T19:38:26.836Z,48.70
2022-07-25T19:41:02.154Z,48.70
2022-07-25T19:43:36.334Z,48.70
2022-07-25T19:46:11.946Z,48.70
2022-07-25T19:48:46.313Z,48.70
2022-07-25T19:51:20.412Z,48.70
2022-07-25T19:53:54.589Z,48.70
2022-07-25T19:56:28.748Z,48.70
2022-07-25T19:59:03.353Z,48.70
2022-07-25T20:01:39.591Z,48.70
2022-07-25T20:04:13.680Z,48.70
2022-07-25T20:06:47.756Z,48.70
2022-07-25T20:09:21.916Z,48.70
2022-07-25T20:11:56.414Z,48.70
2022-07-25T20:14:30.570Z,48.70
2022-07-25T20:17:06.172Z,48.70
2022-07-25T20:19:40.929Z,48.70
2022-07-25T20:22:14.977Z,48.70
2022-07-25T20:24:49.035Z,48.70
2022-07-25T20:27:23.228Z,48.70
2022-07-25T20:29:57.219Z,48.80
2022-07-25T20:32:33.016Z,48.70
2022-07-25T20:35:08.047Z,48.70
2022-07-25T20:37:42.212Z,48.80
2022-07-25T20:40:16.406Z,48.80
2022-07-25T20:42:50.898Z,48.80
2022-07-25T20:45:25.165Z,48.80
2022-07-25T20:48:00.667Z,48.80
2022-07-25T20:50:37.335Z,48.80
2022-07-25T20:53:11.614Z,48.80
2022-07-25T20:55:45.809Z,48.80
2022-07-25T20:58:19.883Z,48.70
2022-07-25T21:00:54.435Z,48.70
2022-07-25T21:03:31.133Z,48.80
2022-07-25T21:06:05.419Z,48.70
2022-07-25T21:08:39.509Z,48.80
2022-07-25T21:11:13.647Z,48.80
2022-07-25T21:13:47.844Z,48.80
2022-07-25T21:16:22.250Z,48.80
2022-07-25T21:18:58.066Z,48.80
2022-07-25T21:21:32.946Z,48.80
2022-07-25T21:24:07.885Z,48.80
2022-07-25T21:26:42.127Z,48.70
2022-07-25T21:29:16.113Z,48.80
2022-07-25T21:31:50.384Z,48.70
2022-07-25T21:34:26.112Z,48.80
2022-07-25T21:37:00.077Z,48.80
2022-07-25T21:39:34.389Z,48.80
2022-07-25T21:42:10.159Z,48.80
2022-07-25T21:44:45.584Z,48.80
2022-07-25T21:47:19.632Z,48.70
2022-07-25T21:50:13.114Z,48.80
2022-07-25T21:52:47.368Z,48.80
2022-07-25T21:55:22.177Z,48.80
2022-07-25T21:57:56.255Z,48.80
2022-07-25T22:00:33.337Z,48.70
2022-07-25T22:03:07.574Z,48.80
2022-07-25T22:05:43.030Z,48.80
2022-07-25T22:08:17.178Z,48.80
2022-07-25T22:10:51.474Z,48.90
2022-07-25T22:13:26.175Z,48.80
2022-07-25T22:16:00.244Z,48.80
2022-07-25T22:18:34.277Z,48.80
2022-07-25T22:21:09.702Z,48.90
2022-07-25T22:23:44.205Z,48.80
2022-07-25T22:26:20.398Z,48.90
2022-07-25T22:28:54.499Z,48.80
2022-07-25T22:31:28.633Z,48.80
2022-07-25T22:34:02.706Z,48.80
2022-07-25T22:36:38.222Z,48.70
2022-07-25T22:39:12.748Z,48.80
2022-07-25T22:41:47.296Z,48.70
2022-07-25T22:44:21.502Z,48.80
2022-07-25T22:46:55.745Z,48.70
2022-07-25T22:49:29.695Z,48.70
2022-07-25T22:52:08.766Z,48.80
2022-07-25T22:54:42.854Z,48.70
2022-07-25T22:57:16.864Z,48.80
2022-07-25T22:59:50.941Z,48.80
2022-07-25T23:02:25.063Z,48.80
2022-07-25T23:04:59.232Z,48.80
2022-07-25T23:07:35.215Z,48.80
2022-07-25T23:10:10.512Z,48.80
2022-07-25T23:12:44.550Z,48.70
2022-07-25T23:15:18.558Z,48.80
2022-07-25T23:17:52.517Z,48.80
2022-07-25T23:20:26.555Z,48.80
2022-07-25T23:23:01.903Z,48.80
2022-07-25T23:25:35.988Z,48.70
2022-07-25T23:28:10.207Z,48.70
2022-07-25T23:30:44.192Z,48.70
2022-07-25T23:33:18.154Z,48.70
2022-07-25T23:35:59.367Z,48.70
2022-07-25T23:38:34.735Z,48.80
2022-07-25T23:41:08.716Z,48.80
2022-07-25T23:43:57.707Z,48.80
2022-07-25T23:46:34.118Z,48.80
2022-07-25T23:49:10.076Z,48.80
2022-07-25T23:51:44.453Z,48.70
2022-07-25T23:54:20.105Z,48.80
2022-07-25T23:56:54.512Z,48.70
2022-07-25T23:59:28.522Z,48.80
